Talos — 9HA4371 — position and weather

sailwx.info

Track history (hours):
 
Tides and Currents Weather Stations Pressure Air Temp Water Temp Dewpoint Dewpoint Depression Visibility Wind Speed Wind Dir Waves Ship Positions

Talos

Last reported at 2017-Sep-21 22:44 UTC. Time now 2017-Sep-26 16:36 UTC.
Position N 01°21' E 103°15'.

Length 369 m; draft 14.2 m.

Type: Cargo ship. MMSI: 249769000.

Date/timePositionNaut miles runAvg speedWind from/ knotsBaromVisibWave heightAir tempDewpointWater temp
2017-Sep-21 22:44N 01°21' E 103°15'520.9
2017-Sep-21 22:30N 01°18' E 103°19'1020.0
2017-Sep-21 22:00N 01°14' E 103°28'510.5
2017-Sep-21 21:30N 01°16' E 103°33'5 9.8
2017-Sep-21 21:00N 01°21' E 103°33'0 0.5
2017-Sep-21 20:30N 01°21' E 103°33'0 0.1
2017-Sep-21 19:57N 01°21' E 103°33'0 0.0
2017-Sep-21 19:30N 01°21' E 103°33'0 0.0
2017-Sep-21 18:57N 01°21' E 103°33'0 0.0
2017-Sep-21 18:30N 01°21' E 103°33'0 0.0
2017-Sep-21 17:57N 01°21' E 103°33'0 0.0
2017-Sep-21 17:30N 01°21' E 103°33'0 0.0
2017-Sep-21 17:00N 01°21' E 103°33'0 0.0
2017-Sep-21 16:30N 01°21' E 103°33'0 0.0
2017-Sep-21 16:00N 01°21' E 103°33'0 0.0
2017-Sep-21 15:30N 01°21' E 103°33'0 0.0
2017-Sep-21 14:57N 01°21' E 103°33'0 0.0
2017-Sep-21 14:27N 01°21' E 103°33'0 0.0
2017-Sep-21 13:54N 01°21' E 103°33'0 0.0
2017-Sep-21 13:30N 01°21' E 103°33'0 0.0
2017-Sep-21 13:00N 01°21' E 103°33'0 0.0
2017-Sep-21 12:24N 01°21' E 103°33'2020.0
2017-Sep-21 11:24N 01°12' E 103°51'1 2.8
2017-Sep-21 11:00N 01°12' E 103°52'2 3.1
2017-Sep-21 10:30N 01°13' E 103°53'1 2.9
2017-Sep-21 10:00N 01°13' E 103°54'1 2.3
2017-Sep-21 09:30N 01°14' E 103°56'2436.9
2017-Sep-21 08:51N 01°21' E 103°33'0 0.0
2017-Sep-21 08:27N 01°21' E 103°33'0 0.0
2017-Sep-21 07:48N 01°21' E 103°33'0 0.0
2017-Sep-21 07:21N 01°21' E 103°33'0 0.0
2017-Sep-21 06:48N 01°21' E 103°33'0 0.0
2017-Sep-21 06:21N 01°21' E 103°33'0 0.0
2017-Sep-21 05:54N 01°21' E 103°33'0 0.0
2017-Sep-21 05:30N 01°21' E 103°33'0 0.0
2017-Sep-21 05:00N 01°21' E 103°33'0 0.0
2017-Sep-21 04:30N 01°21' E 103°33'0 0.0
2017-Sep-21 04:01N 01°21' E 103°33'1 1.8
2017-Sep-21 03:30N 01°20' E 103°33'510.0
2017-Sep-21 03:00N 01°15' E 103°33'5 9.0
2017-Sep-21 02:30N 01°12' E 103°36'510.3
2017-Sep-21 02:00N 01°10' E 103°41'5 9.5
2017-Sep-21 01:30N 01°09' E 103°45'510.7
2017-Sep-21 01:01N 01°11' E 103°50'510.5
2017-Sep-21 00:31N 01°14' E 103°55'3 5.9
2017-Sep-21 00:01N 01°15' E 103°58'4 8.3
2017-Sep-20 23:30N 01°16' E 104°02'816.7
2017-Sep-20 23:01N 01°17' E 104°10'816.2
2017-Sep-20 22:29N 01°18' E 104°18'  
2017-Sep-17 20:23N 19°44' E 112°57'717.9
2017-Sep-17 20:00N 19°50' E 113°01'16114.0
2017-Sep-17 08:32N 22°23' E 113°54'111.3
2017-Sep-17 08:29N 22°24' E 113°54'2 0.1
2017-Sep-16 11:05N 22°26' E 113°53'0 6.7
2017-Sep-16 11:00N 22°25' E 113°53'9 1.6
2017-Sep-16 05:40N 22°18' E 113°48'214.8
2017-Sep-16 05:30N 22°20' E 113°48'814.4
2017-Sep-16 04:57N 22°28' E 113°45'714.7
2017-Sep-16 04:30N 22°34' E 113°43'5 9.1
2017-Sep-16 04:00N 22°38' E 113°41'0 0.4
2017-Sep-16 03:30N 22°38' E 113°41'0 0.1
2017-Sep-16 03:00N 22°38' E 113°41'0 0.0
2017-Sep-16 02:24N 22°38' E 113°41'0 0.0
2017-Sep-16 01:54N 22°38' E 113°41'0 0.0
2017-Sep-16 01:30N 22°38' E 113°41'0 0.0
2017-Sep-16 01:00N 22°38' E 113°41'0 0.0
2017-Sep-16 00:28N 22°38' E 113°41'0 0.0
2017-Sep-15 23:25N 22°38' E 113°41'0 0.0
2017-Sep-15 22:49N 22°38' E 113°41'0 0.0
2017-Sep-15 21:13N 22°38' E 113°41'0 0.0
2017-Sep-15 20:40N 22°38' E 113°41'0 0.0
2017-Sep-15 20:13N 22°38' E 113°41'0 0.0
2017-Sep-15 19:43N 22°38' E 113°41'0 0.0
2017-Sep-15 19:25N 22°38' E 113°41'0 0.0
2017-Sep-15 18:43N 22°38' E 113°41'0 0.0
2017-Sep-15 18:22N 22°38' E 113°41'0 0.0
2017-Sep-15 17:58N 22°38' E 113°41'0 0.0
2017-Sep-15 17:22N 22°38' E 113°41'0 0.0
2017-Sep-15 16:55N 22°38' E 113°41'0 0.0
2017-Sep-15 16:28N 22°38' E 113°41'0 0.0
2017-Sep-15 15:55N 22°38' E 113°41'0 0.0
2017-Sep-15 15:19N 22°38' E 113°41'0 0.0
2017-Sep-15 14:37N 22°38' E 113°41'0 0.0
2017-Sep-15 14:28N 22°38' E 113°41'0 0.0
2017-Sep-15 13:55N 22°38' E 113°41'0 0.0
2017-Sep-15 13:28N 22°38' E 113°41'0 0.0
2017-Sep-15 12:13N 22°38' E 113°41'0 0.0
2017-Sep-15 11:55N 22°38' E 113°41'0 0.0
2017-Sep-15 11:18N 22°38' E 113°41'0 0.2
2017-Sep-15 11:00N 22°38' E 113°41'0 0.5
2017-Sep-15 10:31N 22°38' E 113°41'3 6.0
2017-Sep-15 10:00N 22°35' E 113°43'713.2
2017-Sep-15 09:30N 22°29' E 113°45'4 7.3
2017-Sep-15 08:58N 22°25' E 113°46'610.9
2017-Sep-15 08:25N 22°20' E 113°48'18 4.4
2017-Sep-15 04:15N 22°20' E 114°07'1 0.7
2017-Sep-15 03:26N 22°20' E 114°08'0 0.0
2017-Sep-15 02:59N 22°20' E 114°08'0 0.0
2017-Sep-15 02:29N 22°20' E 114°08'0 0.0
2017-Sep-15 01:59N 22°20' E 114°08'0 0.0
2017-Sep-15 01:08N 22°20' E 114°08'0 0.0
2017-Sep-15 00:56N 22°20' E 114°08'0 0.0
2017-Sep-15 00:26N 22°20' E 114°08'0 0.0
2017-Sep-14 23:56N 22°20' E 114°08'0 0.0
2017-Sep-14 22:38N 22°20' E 114°08'0 0.0
2017-Sep-14 22:29N 22°20' E 114°08'0 0.0
2017-Sep-14 21:59N 22°20' E 114°08'0 0.0
2017-Sep-14 21:29N 22°20' E 114°08'0 0.0
2017-Sep-14 10:49N 22°20' E 114°08'0 0.4
2017-Sep-14 10:30N 22°20' E 114°08'23410.7
2017-Sep-13 12:32N 23°42' E 118°06'113.3
2017-Sep-13 12:30N 23°42' E 118°07'714.7
2017-Sep-13 12:00N 23°46' E 118°13'714.5
2017-Sep-13 11:30N 23°51' E 118°20'714.3
2017-Sep-13 11:00N 23°55' E 118°26'1014.6
2017-Sep-13 10:17N 24°02' E 118°35'714.7
2017-Sep-13 09:50N 24°06' E 118°40'1814.4
2017-Sep-13 08:34N 24°18' E 118°55'214.4
2017-Sep-13 08:27N 24°19' E 118°57'714.1
2017-Sep-13 07:59N 24°23' E 119°02'714.0
2017-Sep-13 07:30N 24°28' E 119°08'714.3
2017-Sep-13 07:00N 24°32' E 119°14'714.4
2017-Sep-13 06:30N 24°36' E 119°21'2714.0
2017-Sep-13 04:34N 24°53' E 119°44'37014.7
2017-Sep-12 03:24N 30°21' E 122°55'1120.5
2017-Sep-12 02:51N 30°27' E 122°44'2418.2
2017-Sep-12 01:33N 30°33' E 122°17'  
Track history (hours):
 
Tides and Currents Weather Stations Pressure Air Temp Water Temp Dewpoint Dewpoint Depression Visibility Wind Speed Wind Dir Waves Ship Positions

Talos

Last reported at 2017-Sep-21 22:44 UTC. Time now 2017-Sep-26 16:36 UTC.
Position N 01°21' E 103°15'.

Length 369 m; draft 14.2 m.

Type: Cargo ship. MMSI: 249769000.

Date/timePositionNaut miles runAvg speedWind from/ knotsBaromVisibWave heightAir tempDewpointWater temp
2017-Sep-21 22:44N 01°21' E 103°15'520.9
2017-Sep-21 22:30N 01°18' E 103°19'1020.0
2017-Sep-21 22:00N 01°14' E 103°28'510.5
2017-Sep-21 21:30N 01°16' E 103°33'5 9.8
2017-Sep-21 21:00N 01°21' E 103°33'0 0.5
2017-Sep-21 20:30N 01°21' E 103°33'0 0.1
2017-Sep-21 19:57N 01°21' E 103°33'0 0.0
2017-Sep-21 19:30N 01°21' E 103°33'0 0.0
2017-Sep-21 18:57N 01°21' E 103°33'0 0.0
2017-Sep-21 18:30N 01°21' E 103°33'0 0.0
2017-Sep-21 17:57N 01°21' E 103°33'0 0.0
2017-Sep-21 17:30N 01°21' E 103°33'0 0.0
2017-Sep-21 17:00N 01°21' E 103°33'0 0.0
2017-Sep-21 16:30N 01°21' E 103°33'0 0.0
2017-Sep-21 16:00N 01°21' E 103°33'0 0.0
2017-Sep-21 15:30N 01°21' E 103°33'0 0.0
2017-Sep-21 14:57N 01°21' E 103°33'0 0.0
2017-Sep-21 14:27N 01°21' E 103°33'0 0.0
2017-Sep-21 13:54N 01°21' E 103°33'0 0.0
2017-Sep-21 13:30N 01°21' E 103°33'0 0.0
2017-Sep-21 13:00N 01°21' E 103°33'0 0.0
2017-Sep-21 12:24N 01°21' E 103°33'2020.0
2017-Sep-21 11:24N 01°12' E 103°51'1 2.8
2017-Sep-21 11:00N 01°12' E 103°52'2 3.1
2017-Sep-21 10:30N 01°13' E 103°53'1 2.9
2017-Sep-21 10:00N 01°13' E 103°54'1 2.3
2017-Sep-21 09:30N 01°14' E 103°56'2436.9
2017-Sep-21 08:51N 01°21' E 103°33'0 0.0
2017-Sep-21 08:27N 01°21' E 103°33'0 0.0
2017-Sep-21 07:48N 01°21' E 103°33'0 0.0
2017-Sep-21 07:21N 01°21' E 103°33'0 0.0
2017-Sep-21 06:48N 01°21' E 103°33'0 0.0
2017-Sep-21 06:21N 01°21' E 103°33'0 0.0
2017-Sep-21 05:54N 01°21' E 103°33'0 0.0
2017-Sep-21 05:30N 01°21' E 103°33'0 0.0
2017-Sep-21 05:00N 01°21' E 103°33'0 0.0
2017-Sep-21 04:30N 01°21' E 103°33'0 0.0
2017-Sep-21 04:01N 01°21' E 103°33'1 1.8
2017-Sep-21 03:30N 01°20' E 103°33'510.0
2017-Sep-21 03:00N 01°15' E 103°33'5 9.0
2017-Sep-21 02:30N 01°12' E 103°36'510.3
2017-Sep-21 02:00N 01°10' E 103°41'5 9.5
2017-Sep-21 01:30N 01°09' E 103°45'510.7
2017-Sep-21 01:01N 01°11' E 103°50'510.5
2017-Sep-21 00:31N 01°14' E 103°55'3 5.9
2017-Sep-21 00:01N 01°15' E 103°58'4 8.3
2017-Sep-20 23:30N 01°16' E 104°02'816.7
2017-Sep-20 23:01N 01°17' E 104°10'816.2
2017-Sep-20 22:29N 01°18' E 104°18'  
2017-Sep-17 20:23N 19°44' E 112°57'717.9
2017-Sep-17 20:00N 19°50' E 113°01'16114.0
2017-Sep-17 08:32N 22°23' E 113°54'111.3
2017-Sep-17 08:29N 22°24' E 113°54'2 0.1
2017-Sep-16 11:05N 22°26' E 113°53'0 6.7
2017-Sep-16 11:00N 22°25' E 113°53'9 1.6
2017-Sep-16 05:40N 22°18' E 113°48'214.8
2017-Sep-16 05:30N 22°20' E 113°48'814.4
2017-Sep-16 04:57N 22°28' E 113°45'714.7
2017-Sep-16 04:30N 22°34' E 113°43'5 9.1
2017-Sep-16 04:00N 22°38' E 113°41'0 0.4
2017-Sep-16 03:30N 22°38' E 113°41'0 0.1
2017-Sep-16 03:00N 22°38' E 113°41'0 0.0
2017-Sep-16 02:24N 22°38' E 113°41'0 0.0
2017-Sep-16 01:54N 22°38' E 113°41'0 0.0
2017-Sep-16 01:30N 22°38' E 113°41'0 0.0
2017-Sep-16 01:00N 22°38' E 113°41'0 0.0
2017-Sep-16 00:28N 22°38' E 113°41'0 0.0
2017-Sep-15 23:25N 22°38' E 113°41'0 0.0
2017-Sep-15 22:49N 22°38' E 113°41'0 0.0
2017-Sep-15 21:13N 22°38' E 113°41'0 0.0
2017-Sep-15 20:40N 22°38' E 113°41'0 0.0
2017-Sep-15 20:13N 22°38' E 113°41'0 0.0
2017-Sep-15 19:43N 22°38' E 113°41'0 0.0
2017-Sep-15 19:25N 22°38' E 113°41'0 0.0
2017-Sep-15 18:43N 22°38' E 113°41'0 0.0
2017-Sep-15 18:22N 22°38' E 113°41'0 0.0
2017-Sep-15 17:58N 22°38' E 113°41'0 0.0
2017-Sep-15 17:22N 22°38' E 113°41'0 0.0
2017-Sep-15 16:55N 22°38' E 113°41'0 0.0
2017-Sep-15 16:28N 22°38' E 113°41'0 0.0
2017-Sep-15 15:55N 22°38' E 113°41'0 0.0
2017-Sep-15 15:19N 22°38' E 113°41'0 0.0
2017-Sep-15 14:37N 22°38' E 113°41'0 0.0
2017-Sep-15 14:28N 22°38' E 113°41'0 0.0
2017-Sep-15 13:55N 22°38' E 113°41'0 0.0
2017-Sep-15 13:28N 22°38' E 113°41'0 0.0
2017-Sep-15 12:13N 22°38' E 113°41'0 0.0
2017-Sep-15 11:55N 22°38' E 113°41'0 0.0
2017-Sep-15 11:18N 22°38' E 113°41'0 0.2
2017-Sep-15 11:00N 22°38' E 113°41'0 0.5
2017-Sep-15 10:31N 22°38' E 113°41'3 6.0
2017-Sep-15 10:00N 22°35' E 113°43'713.2
2017-Sep-15 09:30N 22°29' E 113°45'4 7.3
2017-Sep-15 08:58N 22°25' E 113°46'610.9
2017-Sep-15 08:25N 22°20' E 113°48'18 4.4
2017-Sep-15 04:15N 22°20' E 114°07'1 0.7
2017-Sep-15 03:26N 22°20' E 114°08'0 0.0
2017-Sep-15 02:59N 22°20' E 114°08'0 0.0
2017-Sep-15 02:29N 22°20' E 114°08'0 0.0
2017-Sep-15 01:59N 22°20' E 114°08'0 0.0
2017-Sep-15 01:08N 22°20' E 114°08'0 0.0
2017-Sep-15 00:56N 22°20' E 114°08'0 0.0
2017-Sep-15 00:26N 22°20' E 114°08'0 0.0
2017-Sep-14 23:56N 22°20' E 114°08'0 0.0
2017-Sep-14 22:38N 22°20' E 114°08'0 0.0
2017-Sep-14 22:29N 22°20' E 114°08'0 0.0
2017-Sep-14 21:59N 22°20' E 114°08'0 0.0
2017-Sep-14 21:29N 22°20' E 114°08'0 0.0
2017-Sep-14 10:49N 22°20' E 114°08'0 0.4
2017-Sep-14 10:30N 22°20' E 114°08'23410.7
2017-Sep-13 12:32N 23°42' E 118°06'113.3
2017-Sep-13 12:30N 23°42' E 118°07'714.7
2017-Sep-13 12:00N 23°46' E 118°13'714.5
2017-Sep-13 11:30N 23°51' E 118°20'714.3
2017-Sep-13 11:00N 23°55' E 118°26'1014.6
2017-Sep-13 10:17N 24°02' E 118°35'714.7
2017-Sep-13 09:50N 24°06' E 118°40'1814.4
2017-Sep-13 08:34N 24°18' E 118°55'214.4
2017-Sep-13 08:27N 24°19' E 118°57'714.1
2017-Sep-13 07:59N 24°23' E 119°02'714.0
2017-Sep-13 07:30N 24°28' E 119°08'714.3
2017-Sep-13 07:00N 24°32' E 119°14'714.4
2017-Sep-13 06:30N 24°36' E 119°21'2714.0
2017-Sep-13 04:34N 24°53' E 119°44'37014.7
2017-Sep-12 03:24N 30°21' E 122°55'1120.5
2017-Sep-12 02:51N 30°27' E 122°44'2418.2
2017-Sep-12 01:33N 30°33' E 122°17'  

Dump ship's entire track history